createdAt,value
2022-10-19T00:01:23.819Z,11.63
2022-10-19T00:03:56.045Z,11.63
2022-10-19T00:06:26.581Z,11.59
2022-10-19T00:08:55.741Z,11.60
2022-10-19T00:11:25.286Z,11.60
2022-10-19T00:13:54.355Z,11.62
2022-10-19T00:16:23.858Z,11.67
2022-10-19T00:18:57.312Z,11.65
2022-10-19T00:21:25.611Z,11.69
2022-10-19T00:23:53.836Z,11.71
2022-10-19T00:26:22.338Z,11.68
2022-10-19T00:28:50.814Z,11.63
2022-10-19T00:31:19.740Z,11.66
2022-10-19T00:33:48.339Z,11.68
2022-10-19T00:36:20.626Z,11.72
2022-10-19T00:38:49.562Z,11.76
2022-10-19T00:41:19.594Z,11.75
2022-10-19T00:43:56.460Z,11.89
2022-10-19T00:46:24.989Z,11.89
2022-10-19T00:48:56.679Z,11.83
2022-10-19T00:51:43.435Z,11.89
2022-10-19T00:54:13.289Z,11.93
2022-10-19T00:56:44.252Z,12.02
2022-10-19T00:59:14.930Z,12.02
2022-10-19T01:01:45.689Z,12.02
2022-10-19T01:04:15.130Z,11.96
2022-10-19T01:06:45.459Z,11.96
2022-10-19T01:09:13.919Z,11.89
2022-10-19T01:11:52.570Z,11.79
2022-10-19T01:14:33.550Z,11.88
2022-10-19T01:17:12.443Z,11.91
2022-10-19T01:20:31.004Z,11.95
2022-10-19T01:23:18.345Z,11.91
2022-10-19T01:25:56.089Z,11.96
2022-10-19T01:28:40.738Z,11.98
2022-10-19T01:31:20.687Z,12.00
2022-10-19T01:36:31.575Z,11.97
2022-10-19T01:39:07.083Z,12.05
2022-10-19T01:41:43.169Z,12.10
2022-10-19T01:44:17.668Z,12.09
2022-10-19T01:46:53.332Z,12.15
2022-10-19T01:49:26.684Z,12.16
2022-10-19T01:54:51.722Z,12.15
2022-10-19T01:57:24.278Z,12.19
2022-10-19T01:59:54.489Z,12.16
2022-10-19T02:02:27.220Z,12.15
2022-10-19T02:04:58.270Z,12.15
2022-10-19T02:07:27.274Z,12.19
2022-10-19T02:09:55.598Z,12.21
2022-10-19T02:12:25.620Z,12.21
2022-10-19T02:14:59.383Z,12.13
2022-10-19T02:17:34.975Z,12.09
2022-10-19T02:20:05.851Z,12.10
2022-10-19T02:22:34.558Z,12.14
2022-10-19T02:25:03.053Z,12.07
2022-10-19T02:27:31.368Z,12.08
2022-10-19T02:29:59.655Z,12.07
2022-10-19T02:32:30.076Z,12.09
2022-10-19T02:34:58.825Z,12.09
2022-10-19T02:37:27.235Z,12.06
2022-10-19T02:39:55.714Z,12.05
2022-10-19T02:42:30.516Z,12.09
2022-10-19T02:45:02.296Z,12.03
2022-10-19T02:47:36.989Z,12.07
2022-10-19T02:50:07.296Z,12.06
2022-10-19T02:52:37.791Z,12.12
2022-10-19T02:55:07.296Z,12.11
2022-10-19T02:57:36.268Z,12.07
2022-10-19T03:00:06.761Z,12.15
2022-10-19T03:02:37.292Z,12.08
2022-10-19T03:05:06.069Z,12.06
2022-10-19T03:07:34.748Z,12.04
2022-10-19T03:10:05.167Z,11.92
2022-10-19T03:12:33.476Z,11.86
2022-10-19T03:15:01.771Z,11.87
2022-10-19T03:17:30.097Z,11.82
2022-10-19T03:20:00.449Z,11.88
2022-10-19T03:22:28.711Z,11.95
2022-10-19T03:24:57.080Z,11.93
2022-10-19T03:27:25.322Z,11.95
2022-10-19T03:29:53.553Z,11.99
2022-10-19T03:32:21.809Z,12.04
2022-10-19T03:34:49.985Z,11.99
2022-10-19T03:37:20.148Z,12.09
2022-10-19T03:39:48.405Z,12.04
2022-10-19T03:42:16.610Z,11.95
2022-10-19T03:44:44.824Z,11.94
2022-10-19T03:47:13.066Z,11.97
2022-10-19T03:49:42.917Z,11.91
2022-10-19T03:52:11.377Z,11.86
2022-10-19T03:54:41.660Z,11.80
2022-10-19T03:57:09.883Z,11.79
2022-10-19T03:59:38.106Z,11.74
2022-10-19T04:02:06.418Z,11.78
2022-10-19T04:04:34.788Z,11.86
2022-10-19T04:07:03.134Z,11.89
2022-10-19T04:09:31.504Z,11.89
2022-10-19T04:12:01.672Z,11.95
2022-10-19T04:14:33.272Z,11.94
2022-10-19T04:17:07.712Z,11.93
2022-10-19T04:19:35.893Z,12.01
2022-10-19T04:22:04.243Z,11.98
2022-10-19T04:24:32.540Z,11.93
2022-10-19T04:27:03.278Z,11.94
2022-10-19T04:29:31.479Z,11.96
2022-10-19T04:32:00.504Z,11.98
2022-10-19T04:34:28.815Z,12.01
2022-10-19T04:36:58.640Z,12.06
2022-10-19T04:39:27.003Z,12.02
2022-10-19T04:41:55.187Z,12.02
2022-10-19T04:44:25.426Z,11.94
2022-10-19T04:46:53.633Z,11.97
2022-10-19T04:49:21.986Z,11.84
2022-10-19T04:51:50.212Z,11.86
2022-10-19T04:54:18.517Z,11.94
2022-10-19T04:56:46.719Z,11.92
2022-10-19T04:59:14.941Z,11.88
2022-10-19T05:01:47.347Z,11.90
2022-10-19T05:04:15.699Z,11.96
2022-10-19T05:06:43.915Z,11.97
2022-10-19T05:09:12.179Z,11.95
2022-10-19T05:11:40.465Z,12.00
2022-10-19T05:14:08.912Z,11.88
2022-10-19T05:16:37.202Z,11.83
2022-10-19T05:19:07.450Z,11.81
2022-10-19T05:21:35.679Z,11.77
2022-10-19T05:24:04.027Z,11.76
2022-10-19T05:26:32.379Z,11.83
2022-10-19T05:29:03.847Z,11.85
2022-10-19T05:31:34.231Z,11.89
2022-10-19T05:34:03.507Z,11.89
2022-10-19T05:36:36.219Z,11.88
2022-10-19T05:39:07.869Z,11.92
2022-10-19T05:41:36.582Z,11.83
2022-10-19T05:44:06.302Z,11.86
2022-10-19T05:46:35.583Z,11.93
2022-10-19T05:49:05.993Z,11.84
2022-10-19T05:51:36.175Z,11.86
2022-10-19T05:54:04.808Z,11.89
2022-10-19T05:56:34.190Z,11.91
2022-10-19T05:59:05.262Z,11.96
2022-10-19T06:01:34.535Z,12.02
2022-10-19T06:04:05.093Z,11.97
2022-10-19T06:06:33.339Z,11.96
2022-10-19T06:09:03.560Z,12.04
2022-10-19T06:11:34.448Z,12.04
2022-10-19T06:14:04.116Z,12.04
2022-10-19T06:16:33.574Z,11.92
2022-10-19T06:19:02.088Z,11.93
2022-10-19T06:21:31.860Z,11.90
2022-10-19T06:24:05.216Z,11.77
2022-10-19T06:26:35.416Z,11.82
2022-10-19T06:29:05.272Z,11.84
2022-10-19T06:31:36.701Z,11.86
2022-10-19T06:34:05.555Z,11.89
2022-10-19T06:36:34.430Z,11.96
2022-10-19T06:39:05.104Z,11.98
2022-10-19T06:41:34.080Z,11.94
2022-10-19T06:44:03.434Z,11.95
2022-10-19T06:46:32.086Z,11.93
2022-10-19T06:49:01.856Z,11.94
2022-10-19T06:51:33.474Z,12.02
2022-10-19T06:54:01.741Z,12.03
2022-10-19T06:56:31.855Z,12.06
2022-10-19T06:59:00.377Z,12.11
2022-10-19T07:01:28.677Z,12.17
2022-10-19T07:03:57.159Z,12.20
2022-10-19T07:06:25.575Z,12.33
2022-10-19T07:08:53.950Z,12.29
2022-10-19T07:11:23.714Z,12.42
2022-10-19T07:13:54.907Z,12.48
2022-10-19T07:16:23.561Z,12.50
2022-10-19T07:18:53.418Z,12.43
2022-10-19T07:21:24.302Z,12.42
2022-10-19T07:23:52.726Z,12.57
2022-10-19T07:26:26.021Z,12.55
2022-10-19T07:28:57.620Z,12.64
2022-10-19T07:31:27.728Z,12.62
2022-10-19T07:33:56.816Z,12.65
2022-10-19T07:36:26.251Z,12.55
2022-10-19T07:38:54.713Z,12.59
2022-10-19T07:41:25.195Z,12.61
2022-10-19T07:43:54.127Z,12.76
2022-10-19T07:46:26.556Z,12.76
2022-10-19T07:48:55.371Z,12.93
2022-10-19T07:51:24.141Z,12.91
2022-10-19T07:53:52.662Z,12.92
2022-10-19T07:56:23.436Z,12.87
2022-10-19T07:58:53.106Z,12.81
2022-10-19T08:01:27.515Z,12.77
2022-10-19T08:06:46.253Z,12.72
2022-10-19T08:09:33.356Z,12.70
2022-10-19T08:12:02.961Z,12.90
2022-10-19T08:14:31.332Z,12.83
2022-10-19T08:17:01.551Z,12.97
2022-10-19T08:19:29.778Z,13.00
2022-10-19T08:21:58.048Z,13.05
2022-10-19T08:24:26.325Z,13.02
2022-10-19T08:26:54.979Z,12.98
2022-10-19T08:29:25.504Z,12.83
2022-10-19T08:31:56.397Z,12.68
2022-10-19T08:34:26.690Z,12.91
2022-10-19T08:36:55.237Z,13.05
2022-10-19T08:39:23.781Z,13.13
2022-10-19T08:42:01.827Z,13.17
2022-10-19T08:44:48.630Z,13.24
2022-10-19T08:47:27.709Z,13.26
2022-10-19T08:49:59.620Z,13.36
2022-10-19T08:52:34.486Z,13.41
2022-10-19T08:55:05.613Z,13.43
2022-10-19T08:57:42.519Z,13.54
2022-10-19T09:00:18.971Z,13.43
2022-10-19T09:03:00.103Z,13.52
2022-10-19T09:05:38.199Z,13.71
2022-10-19T09:08:06.684Z,13.86
2022-10-19T09:10:38.654Z,13.96
2022-10-19T09:13:15.680Z,14.01
2022-10-19T09:15:46.521Z,14.14
2022-10-19T09:18:20.479Z,14.07
2022-10-19T09:20:52.628Z,14.43
2022-10-19T09:23:27.511Z,14.74
2022-10-19T09:26:00.453Z,14.94
2022-10-19T09:28:47.732Z,15.40
2022-10-19T09:31:21.754Z,15.82
2022-10-19T09:33:55.004Z,16.10
2022-10-19T09:36:49.346Z,16.17
2022-10-19T09:39:18.159Z,16.34
2022-10-19T09:41:48.607Z,16.85
2022-10-19T09:44:17.324Z,16.38
2022-10-19T09:46:51.855Z,16.61
2022-10-19T09:49:21.104Z,17.19
2022-10-19T09:51:54.027Z,17.05
2022-10-19T09:54:34.950Z,17.20
2022-10-19T09:57:03.922Z,17.24
2022-10-19T09:59:35.987Z,16.83
2022-10-19T10:02:19.200Z,16.88
2022-10-19T10:04:48.910Z,17.16
2022-10-19T10:07:22.154Z,17.31
2022-10-19T10:09:50.397Z,17.14
2022-10-19T10:12:18.607Z,16.72
2022-10-19T10:14:46.955Z,16.69
2022-10-19T10:17:19.520Z,16.80
2022-10-19T10:20:08.769Z,16.50
2022-10-19T10:22:39.168Z,16.49
2022-10-19T10:25:17.899Z,16.36
2022-10-19T10:27:56.758Z,16.57
2022-10-19T10:30:25.493Z,16.51
2022-10-19T10:33:00.360Z,16.58
2022-10-19T10:35:37.710Z,18.45
2022-10-19T10:38:11.485Z,20.21
2022-10-19T10:40:41.314Z,21.59
2022-10-19T10:43:16.064Z,21.94
2022-10-19T10:45:47.296Z,22.45
2022-10-19T10:48:22.836Z,22.67
2022-10-19T10:50:52.449Z,22.19
2022-10-19T10:53:40.524Z,22.58
2022-10-19T10:56:25.162Z,23.38
2022-10-19T10:58:59.077Z,23.52
2022-10-19T11:01:31.792Z,23.88
2022-10-19T11:04:05.945Z,23.52
2022-10-19T11:06:43.725Z,23.28
2022-10-19T11:09:27.535Z,23.22
2022-10-19T11:11:58.792Z,23.18
2022-10-19T11:14:38.505Z,23.13
2022-10-19T11:17:08.942Z,23.94
2022-10-19T11:19:40.789Z,24.17
2022-10-19T11:22:23.607Z,24.27
2022-10-19T11:25:09.661Z,24.59
2022-10-19T11:27:48.298Z,25.59
2022-10-19T11:30:20.000Z,24.73
2022-10-19T11:32:58.843Z,23.19
2022-10-19T11:35:37.659Z,22.74
2022-10-19T11:38:30.223Z,22.01
2022-10-19T11:41:18.671Z,22.97
2022-10-19T11:43:59.664Z,23.95
2022-10-19T11:46:35.111Z,22.76
2022-10-19T11:49:15.152Z,22.19
2022-10-19T11:51:51.416Z,23.02
2022-10-19T11:54:40.953Z,24.23
2022-10-19T11:57:16.463Z,24.94
2022-10-19T12:00:13.564Z,22.25
2022-10-19T12:03:13.451Z,21.80
2022-10-19T12:06:07.408Z,23.48
2022-10-19T12:08:56.301Z,24.55
2022-10-19T12:11:32.700Z,24.12
2022-10-19T12:14:06.553Z,23.88
2022-10-19T12:16:39.757Z,22.77
2022-10-19T12:19:13.719Z,22.64
2022-10-19T12:21:44.472Z,22.25
2022-10-19T12:24:16.825Z,20.69
2022-10-19T12:26:46.826Z,20.92
2022-10-19T12:29:20.979Z,20.34
2022-10-19T12:31:50.477Z,20.30
2022-10-19T12:34:32.602Z,20.42
2022-10-19T12:37:10.759Z,19.65
2022-10-19T12:39:45.286Z,19.73
2022-10-19T12:42:24.863Z,18.68
2022-10-19T12:45:09.837Z,18.56
2022-10-19T12:47:38.266Z,18.22
2022-10-19T12:50:06.979Z,18.01
2022-10-19T12:52:42.624Z,17.64
2022-10-19T12:55:34.229Z,17.54
2022-10-19T12:58:07.033Z,17.51
2022-10-19T13:00:39.219Z,17.16
2022-10-19T13:03:15.955Z,16.93
2022-10-19T13:05:44.337Z,16.80
2022-10-19T13:08:28.357Z,16.62
2022-10-19T13:11:09.423Z,16.48
2022-10-19T13:13:57.080Z,16.29
2022-10-19T13:16:42.507Z,16.20
2022-10-19T13:19:22.149Z,16.20
2022-10-19T13:22:15.323Z,16.36
2022-10-19T13:24:43.610Z,16.42
2022-10-19T13:27:39.865Z,16.65
2022-10-19T13:30:45.497Z,16.93
2022-10-19T13:33:48.618Z,17.20
2022-10-19T13:36:18.218Z,16.92
2022-10-19T13:38:48.858Z,16.92
2022-10-19T13:41:21.029Z,16.82
2022-10-19T13:44:00.164Z,16.60
2022-10-19T13:46:45.851Z,16.53
2022-10-19T13:49:42.543Z,16.65
2022-10-19T13:52:48.028Z,16.55
2022-10-19T13:55:31.920Z,16.51
2022-10-19T13:58:18.507Z,16.32
2022-10-19T14:01:10.003Z,16.23
2022-10-19T14:03:54.843Z,16.28
2022-10-19T14:06:30.966Z,16.48
2022-10-19T14:09:26.087Z,17.33
2022-10-19T14:12:03.796Z,17.28
2022-10-19T14:14:32.114Z,17.44
2022-10-19T14:17:04.188Z,17.80
2022-10-19T14:19:35.657Z,17.93
2022-10-19T14:22:21.239Z,17.70
2022-10-19T14:24:49.518Z,17.52
2022-10-19T14:27:23.265Z,17.59
2022-10-19T14:29:53.252Z,17.61
2022-10-19T14:32:26.187Z,17.91
2022-10-19T14:34:55.429Z,17.51
2022-10-19T14:37:28.273Z,17.03
2022-10-19T14:40:02.983Z,16.79
2022-10-19T14:42:43.094Z,17.10
2022-10-19T14:45:18.226Z,17.59
2022-10-19T14:47:54.757Z,17.68
2022-10-19T14:50:28.092Z,18.07
2022-10-19T14:53:02.829Z,18.01
2022-10-19T14:55:36.535Z,17.51
2022-10-19T14:58:12.375Z,17.73
2022-10-19T15:00:40.973Z,17.69
2022-10-19T15:03:13.752Z,17.73
2022-10-19T15:05:49.192Z,17.51
2022-10-19T15:08:26.130Z,17.36
2022-10-19T15:10:55.120Z,17.09
2022-10-19T15:13:26.658Z,16.98
2022-10-19T15:15:56.584Z,16.64
2022-10-19T15:18:47.592Z,16.54
2022-10-19T15:21:17.349Z,16.44
2022-10-19T15:23:48.341Z,16.27
2022-10-19T15:26:20.535Z,16.17
2022-10-19T15:28:50.112Z,16.00
2022-10-19T15:31:20.198Z,15.52
2022-10-19T15:33:54.029Z,15.33
2022-10-19T15:36:24.236Z,15.17
2022-10-19T15:39:18.282Z,15.08
2022-10-19T15:41:52.822Z,14.98
2022-10-19T15:44:33.504Z,14.90
2022-10-19T15:47:21.030Z,14.89
2022-10-19T15:50:00.792Z,14.70
2022-10-19T15:52:30.366Z,14.64
2022-10-19T15:55:01.840Z,14.53
2022-10-19T15:57:33.689Z,14.47
2022-10-19T16:00:08.615Z,14.36
2022-10-19T16:02:38.475Z,14.27
2022-10-19T16:05:08.165Z,14.20
2022-10-19T16:07:40.685Z,14.10
2022-10-19T16:10:17.994Z,14.07
2022-10-19T16:12:46.542Z,13.98
2022-10-19T16:15:15.757Z,13.88
2022-10-19T16:17:45.408Z,13.78
2022-10-19T16:20:14.631Z,13.72
2022-10-19T16:22:43.165Z,13.65
2022-10-19T16:25:14.133Z,13.36
2022-10-19T16:27:42.726Z,13.31
2022-10-19T16:30:12.658Z,13.26
2022-10-19T16:35:11.530Z,13.05
2022-10-19T16:37:39.986Z,13.00
2022-10-19T16:40:10.171Z,12.99
2022-10-19T16:42:40.590Z,12.96
2022-10-19T16:45:10.665Z,12.78
2022-10-19T16:47:39.092Z,12.71
2022-10-19T16:50:11.909Z,12.59
2022-10-19T16:52:40.535Z,12.48
2022-10-19T16:55:10.015Z,12.42
2022-10-19T16:57:40.319Z,12.41
2022-10-19T17:00:10.175Z,12.34
2022-10-19T17:02:41.994Z,12.30
2022-10-19T17:05:12.942Z,12.22
2022-10-19T17:07:41.247Z,12.12
2022-10-19T17:10:10.658Z,12.11
2022-10-19T17:12:45.807Z,12.02
2022-10-19T17:18:02.845Z,11.88
2022-10-19T17:20:31.201Z,11.83
2022-10-19T17:22:59.482Z,11.74
2022-10-19T17:25:27.751Z,11.73
2022-10-19T17:27:58.199Z,11.74
2022-10-19T17:30:26.570Z,11.59
2022-10-19T17:32:54.915Z,11.59
2022-10-19T17:35:23.409Z,11.52
2022-10-19T17:37:51.766Z,11.46
2022-10-19T17:40:20.441Z,11.46
2022-10-19T17:42:49.079Z,11.36
2022-10-19T17:45:24.381Z,11.32
2022-10-19T17:47:52.786Z,11.26
2022-10-19T17:50:21.088Z,11.28
2022-10-19T17:52:49.536Z,11.26
2022-10-19T17:57:49.116Z,11.17
2022-10-19T18:00:19.599Z,11.15
2022-10-19T18:02:48.457Z,11.04
2022-10-19T18:05:16.973Z,10.91
2022-10-19T18:07:46.564Z,10.87
2022-10-19T18:10:15.096Z,10.82
2022-10-19T18:12:43.320Z,10.85
2022-10-19T18:15:11.784Z,10.83
2022-10-19T18:17:42.040Z,10.80
2022-10-19T18:20:11.647Z,10.70
2022-10-19T18:22:40.211Z,10.67
2022-10-19T18:25:09.436Z,10.59
2022-10-19T18:27:37.943Z,10.57
2022-10-19T18:30:08.724Z,10.55
2022-10-19T18:32:37.731Z,10.51
2022-10-19T18:35:09.785Z,10.52
2022-10-19T18:37:38.289Z,10.47
2022-10-19T18:40:09.906Z,10.43
2022-10-19T18:42:38.394Z,10.43
2022-10-19T18:45:08.954Z,10.39
2022-10-19T18:47:37.169Z,10.34
2022-10-19T18:50:06.422Z,10.27
2022-10-19T18:52:38.606Z,10.32
2022-10-19T18:55:07.971Z,10.28
2022-10-19T18:57:36.235Z,10.15
2022-10-19T19:00:05.477Z,10.16
2022-10-19T19:02:45.734Z,10.15
2022-10-19T19:05:14.873Z,10.12
2022-10-19T19:07:45.084Z,10.10
2022-10-19T19:10:13.865Z,10.09
2022-10-19T19:12:43.233Z,10.06
2022-10-19T19:15:12.408Z,10.01
2022-10-19T19:17:40.662Z,10.04
2022-10-19T19:20:09.768Z,10.00
2022-10-19T19:22:38.286Z,9.99
2022-10-19T19:25:09.533Z,9.99
2022-10-19T19:30:08.184Z,9.94
2022-10-19T19:32:36.756Z,9.95
2022-10-19T19:35:05.581Z,9.94
2022-10-19T19:37:34.149Z,9.88
2022-10-19T19:40:02.629Z,9.90
2022-10-19T19:42:33.021Z,9.85
2022-10-19T19:45:01.239Z,9.90
2022-10-19T19:47:29.507Z,9.93
2022-10-19T19:49:57.790Z,9.90
2022-10-19T19:52:26.147Z,9.88
2022-10-19T19:54:54.350Z,9.79
2022-10-19T19:57:22.639Z,9.87
2022-10-19T19:59:52.754Z,9.83
2022-10-19T20:02:21.162Z,9.68
2022-10-19T20:04:49.381Z,9.74
2022-10-19T20:07:17.559Z,9.79
2022-10-19T20:09:45.862Z,9.77
2022-10-19T20:12:14.089Z,9.77
2022-10-19T20:14:42.388Z,9.73
2022-10-19T20:17:12.647Z,9.73
2022-10-19T20:19:40.850Z,9.65
2022-10-19T20:22:09.116Z,9.63
2022-10-19T20:24:37.845Z,9.66
2022-10-19T20:27:06.340Z,9.61
2022-10-19T20:29:34.541Z,9.51
2022-10-19T20:32:02.897Z,9.59
2022-10-19T20:34:33.101Z,9.66
2022-10-19T20:37:01.462Z,9.60
2022-10-19T20:39:30.117Z,9.51
2022-10-19T20:41:58.493Z,9.49
2022-10-19T20:44:26.881Z,9.41
2022-10-19T20:46:55.285Z,9.44
2022-10-19T20:49:23.812Z,9.39
2022-10-19T20:51:55.337Z,9.34
2022-10-19T20:54:23.591Z,9.34
2022-10-19T20:56:51.813Z,9.34
2022-10-19T20:59:22.076Z,9.29
2022-10-19T21:01:52.614Z,9.34
2022-10-19T21:04:21.229Z,9.36
2022-10-19T21:06:52.038Z,9.31
2022-10-19T21:09:25.413Z,9.28
2022-10-19T21:11:54.260Z,9.19
2022-10-19T21:14:27.207Z,9.21
2022-10-19T21:16:58.079Z,9.19
2022-10-19T21:19:28.208Z,9.25
2022-10-19T21:22:01.013Z,9.24
2022-10-19T21:24:33.657Z,9.21
2022-10-19T21:27:03.464Z,9.19
2022-10-19T21:29:31.792Z,9.11
2022-10-19T21:32:00.144Z,9.17
2022-10-19T21:34:32.560Z,9.11
2022-10-19T21:37:00.954Z,9.11
2022-10-19T21:39:31.105Z,9.07
2022-10-19T21:41:59.553Z,9.12
2022-10-19T21:44:27.924Z,9.15
2022-10-19T21:46:56.131Z,9.02
2022-10-19T21:49:24.427Z,8.99
2022-10-19T21:51:54.103Z,8.96
2022-10-19T21:54:24.752Z,8.95
2022-10-19T21:56:56.046Z,8.95
2022-10-19T21:59:24.466Z,8.92
2022-10-19T22:01:53.959Z,8.90
2022-10-19T22:04:23.283Z,8.89
2022-10-19T22:06:51.586Z,8.86
2022-10-19T22:09:24.453Z,8.86
2022-10-19T22:11:52.835Z,8.92
2022-10-19T22:14:23.117Z,8.88
2022-10-19T22:16:51.435Z,8.92
2022-10-19T22:19:19.895Z,8.95
2022-10-19T22:21:48.506Z,8.89
2022-10-19T22:24:17.258Z,8.85
2022-10-19T22:26:47.438Z,8.83
2022-10-19T22:29:16.295Z,8.83
2022-10-19T22:31:46.916Z,8.81
2022-10-19T22:34:18.820Z,8.81
2022-10-19T22:36:47.349Z,8.81
2022-10-19T22:39:18.175Z,8.83
2022-10-19T22:41:46.443Z,8.85
2022-10-19T22:44:14.735Z,8.87
2022-10-19T22:46:43.068Z,8.86
2022-10-19T22:49:13.644Z,8.89
2022-10-19T22:51:41.937Z,8.84
2022-10-19T22:54:10.348Z,8.84
2022-10-19T22:56:38.778Z,8.89
2022-10-19T22:59:08.230Z,8.85
2022-10-19T23:01:37.026Z,8.85
2022-10-19T23:04:05.871Z,8.81
2022-10-19T23:06:36.129Z,8.84
2022-10-19T23:09:04.682Z,8.82
2022-10-19T23:11:32.949Z,8.85
2022-10-19T23:14:01.203Z,8.86
2022-10-19T23:16:29.514Z,8.90
2022-10-19T23:18:57.915Z,8.87
2022-10-19T23:21:26.095Z,8.81
2022-10-19T23:23:56.473Z,8.81
2022-10-19T23:26:25.783Z,8.84
2022-10-19T23:28:54.063Z,8.87
2022-10-19T23:31:25.556Z,8.89
2022-10-19T23:33:55.201Z,8.82
2022-10-19T23:36:26.259Z,8.84
2022-10-19T23:38:58.334Z,8.82
2022-10-19T23:41:27.145Z,8.72
2022-10-19T23:43:55.514Z,8.78
2022-10-19T23:46:24.022Z,8.74
2022-10-19T23:48:52.396Z,8.73
2022-10-19T23:51:22.485Z,8.76
2022-10-19T23:53:53.681Z,8.80
2022-10-19T23:56:26.119Z,8.79
2022-10-19T23:58:54.791Z,8.72
